createdAt,value
2019-04-30T00:00:49.535Z,97.89
2019-04-30T00:01:55.562Z,97.42
2019-04-30T00:02:49.651Z,97.80
2019-04-30T00:03:50.473Z,98.47
2019-04-30T00:04:49.775Z,98.08
2019-04-30T00:05:53.734Z,97.89
2019-04-30T00:06:49.907Z,98.08
2019-04-30T00:07:50.857Z,97.75
2019-04-30T00:08:50.027Z,98.85
2019-04-30T00:09:54.079Z,99.23
2019-04-30T00:10:50.184Z,98.99
2019-04-30T00:11:50.629Z,98.85
2019-04-30T00:12:50.280Z,99.04
2019-04-30T00:13:54.649Z,98.99
2019-04-30T00:14:50.404Z,99.08
2019-04-30T00:15:52.838Z,99.18
2019-04-30T00:16:50.535Z,98.99
2019-04-30T00:17:52.891Z,99.23
2019-04-30T00:18:58.193Z,99.61
2019-04-30T00:19:58.219Z,99.99
2019-04-30T00:20:50.788Z,99.80
2019-04-30T00:21:56.826Z,99.46
2019-04-30T00:22:50.905Z,99.99
2019-04-30T00:23:50.968Z,99.75
2019-04-30T00:24:51.033Z,99.99
2019-04-30T00:25:51.632Z,99.99
2019-04-30T00:26:52.542Z,99.99
2019-04-30T00:27:51.219Z,99.99
2019-04-30T00:28:51.281Z,99.99
2019-04-30T00:29:51.345Z,99.99
2019-04-30T00:30:51.409Z,99.99
2019-04-30T00:31:51.557Z,99.99
2019-04-30T00:32:51.533Z,99.99
2019-04-30T00:33:52.731Z,99.99
2019-04-30T00:34:51.658Z,99.99
2019-04-30T00:35:55.153Z,99.99
2019-04-30T00:36:51.796Z,99.99
2019-04-30T00:37:56.407Z,99.99
2019-04-30T00:38:51.909Z,99.99
2019-04-30T00:39:53.056Z,99.99
2019-04-30T00:40:52.032Z,99.99
2019-04-30T00:41:52.393Z,99.99
2019-04-30T00:42:52.161Z,99.99
2019-04-30T00:43:52.221Z,99.99
2019-04-30T00:44:52.285Z,99.99
2019-04-30T00:45:52.349Z,99.99
2019-04-30T00:46:52.418Z,99.99
2019-04-30T00:47:52.481Z,99.99
2019-04-30T00:48:52.538Z,99.99
2019-04-30T00:49:57.531Z,99.99
2019-04-30T00:50:52.661Z,99.99
2019-04-30T00:51:54.738Z,99.99
2019-04-30T00:52:52.794Z,99.99
2019-04-30T00:53:52.851Z,99.99
2019-04-30T00:54:52.913Z,99.99
2019-04-30T00:55:52.974Z,99.99
2019-04-30T00:56:57.490Z,99.99
2019-04-30T00:57:53.109Z,99.99
2019-04-30T00:58:53.163Z,99.99
2019-04-30T00:59:54.816Z,99.99
2019-04-30T01:00:53.290Z,99.99
2019-04-30T01:01:53.755Z,99.99
2019-04-30T01:02:53.413Z,99.99
2019-04-30T01:03:55.735Z,99.99
2019-04-30T01:04:53.541Z,99.99
2019-04-30T01:05:55.208Z,99.99
2019-04-30T01:06:53.665Z,99.99
2019-04-30T01:07:54.990Z,99.99
2019-04-30T01:09:00.117Z,99.99
2019-04-30T01:09:55.277Z,99.99
2019-04-30T01:10:55.514Z,99.99
2019-04-30T01:11:55.303Z,99.99
2019-04-30T01:12:54.051Z,99.99
2019-04-30T01:13:54.110Z,99.99
2019-04-30T01:14:54.167Z,99.99
2019-04-30T01:15:54.235Z,99.99
2019-04-30T01:16:54.294Z,99.99
2019-04-30T01:17:54.391Z,99.99
2019-04-30T01:18:54.428Z,99.99
2019-04-30T01:19:54.646Z,99.99
2019-04-30T01:20:54.543Z,99.99
2019-04-30T01:21:54.606Z,99.99
2019-04-30T01:22:54.677Z,99.99
2019-04-30T01:23:54.873Z,99.99
2019-04-30T01:24:54.798Z,99.99
2019-04-30T01:25:54.859Z,99.99
2019-04-30T01:26:54.919Z,99.99
2019-04-30T01:27:54.992Z,99.99
2019-04-30T01:29:00.597Z,99.99
2019-04-30T01:29:55.108Z,99.99
2019-04-30T01:30:58.737Z,99.99
2019-04-30T01:31:55.235Z,99.99
2019-04-30T01:32:56.645Z,99.99
2019-04-30T01:33:55.361Z,99.99
2019-04-30T01:34:55.424Z,99.99
2019-04-30T01:35:55.483Z,99.99
2019-04-30T01:36:55.548Z,99.99
2019-04-30T01:37:55.620Z,99.99
2019-04-30T01:38:55.683Z,99.99
2019-04-30T01:39:55.736Z,99.99
2019-04-30T01:40:55.799Z,99.99
2019-04-30T01:41:55.860Z,99.99
2019-04-30T01:42:55.932Z,99.99
2019-04-30T01:43:55.992Z,99.99
2019-04-30T01:44:56.048Z,99.99
2019-04-30T01:45:56.112Z,99.99
2019-04-30T01:46:56.173Z,99.99
2019-04-30T01:48:00.587Z,99.99
2019-04-30T01:48:56.300Z,99.99
2019-04-30T01:50:01.031Z,99.99
2019-04-30T01:50:56.424Z,99.99
2019-04-30T01:51:57.341Z,99.99
2019-04-30T01:52:56.566Z,99.99
2019-04-30T01:53:56.621Z,99.99
2019-04-30T01:54:58.547Z,99.99
2019-04-30T01:55:56.741Z,99.99
2019-04-30T01:56:56.805Z,99.99
2019-04-30T01:57:56.873Z,99.99
2019-04-30T01:58:56.933Z,99.99
2019-04-30T01:59:58.298Z,99.99
2019-04-30T02:00:57.052Z,99.99
2019-04-30T02:01:58.585Z,99.99
2019-04-30T02:02:59.164Z,99.99
2019-04-30T02:03:58.558Z,99.99
2019-04-30T02:04:59.048Z,99.99
2019-04-30T02:05:59.523Z,99.99
2019-04-30T02:06:59.140Z,99.99
2019-04-30T02:07:58.527Z,99.99
2019-04-30T02:08:59.353Z,99.99
2019-04-30T02:09:58.777Z,99.99
2019-04-30T02:10:59.435Z,99.99
2019-04-30T02:11:59.847Z,99.99
2019-04-30T02:12:59.097Z,99.99
2019-04-30T02:13:59.155Z,99.99
2019-04-30T02:14:59.755Z,99.99
2019-04-30T02:15:59.278Z,99.99
2019-04-30T02:16:59.417Z,99.99
2019-04-30T02:17:58.710Z,99.99
2019-04-30T02:18:59.696Z,99.99
2019-04-30T02:19:59.256Z,99.99
2019-04-30T02:20:59.461Z,99.99
2019-04-30T02:21:58.593Z,99.99
2019-04-30T02:22:58.766Z,99.99
2019-04-30T02:23:58.847Z,99.99
2019-04-30T02:24:58.700Z,99.99
2019-04-30T02:25:58.906Z,99.99
2019-04-30T02:26:59.474Z,99.99
2019-04-30T02:27:59.189Z,99.99
2019-04-30T02:28:59.433Z,99.99
2019-04-30T02:30:01.952Z,99.99
2019-04-30T02:31:00.427Z,99.99
2019-04-30T02:32:00.572Z,99.99
2019-04-30T02:33:00.442Z,99.99
2019-04-30T02:34:00.406Z,99.99
2019-04-30T02:34:59.798Z,99.99
2019-04-30T02:36:00.416Z,99.99
2019-04-30T02:36:59.317Z,99.99
2019-04-30T02:38:00.259Z,99.99
2019-04-30T02:39:02.581Z,99.99
2019-04-30T02:40:00.842Z,99.99
2019-04-30T02:40:59.787Z,99.99
2019-04-30T02:42:00.001Z,99.99
2019-04-30T02:43:01.857Z,99.99
2019-04-30T02:44:00.014Z,99.99
2019-04-30T02:45:03.634Z,99.99
2019-04-30T02:46:00.129Z,99.99
2019-04-30T02:47:00.438Z,99.99
2019-04-30T02:48:00.004Z,99.99
2019-04-30T02:49:00.068Z,99.99
2019-04-30T02:50:14.403Z,99.99
2019-04-30T02:51:00.377Z,99.99
2019-04-30T02:52:00.252Z,99.99
2019-04-30T02:53:02.744Z,99.99
2019-04-30T02:54:00.688Z,99.99
2019-04-30T02:55:00.437Z,99.99
2019-04-30T02:56:02.637Z,99.99
2019-04-30T02:57:00.565Z,99.99
2019-04-30T02:58:00.624Z,99.99
2019-04-30T02:59:03.724Z,99.99
2019-04-30T03:00:00.757Z,99.99
2019-04-30T03:01:00.812Z,99.99
2019-04-30T03:02:00.876Z,99.99
2019-04-30T03:03:00.937Z,99.99
2019-04-30T03:04:01.009Z,99.99
2019-04-30T03:05:01.069Z,99.99
2019-04-30T03:06:01.125Z,99.99
2019-04-30T03:07:01.188Z,99.99
2019-04-30T03:08:01.248Z,99.99
2019-04-30T03:09:01.481Z,99.99
2019-04-30T03:10:01.398Z,99.99
2019-04-30T03:11:01.450Z,99.99
2019-04-30T03:12:01.502Z,99.99
2019-04-30T03:13:01.567Z,99.99
2019-04-30T03:14:01.625Z,99.99
2019-04-30T03:15:01.711Z,99.99
2019-04-30T03:16:01.757Z,99.99
2019-04-30T03:17:01.814Z,99.99
2019-04-30T03:18:01.879Z,99.99
2019-04-30T03:19:01.942Z,99.99
2019-04-30T03:20:03.558Z,99.99
2019-04-30T03:21:02.074Z,99.99
2019-04-30T03:22:02.125Z,99.99
2019-04-30T03:23:02.503Z,99.99
2019-04-30T03:24:02.254Z,99.99
2019-04-30T03:25:02.321Z,99.99
2019-04-30T03:26:02.400Z,99.99
2019-04-30T03:27:02.441Z,99.99
2019-04-30T03:28:02.504Z,99.99
2019-04-30T03:29:02.567Z,99.99
2019-04-30T03:30:02.714Z,99.99
2019-04-30T03:31:04.559Z,99.99
2019-04-30T03:32:03.716Z,99.99
2019-04-30T03:33:03.243Z,99.99
2019-04-30T03:34:02.888Z,99.99
2019-04-30T03:35:03.836Z,99.99
2019-04-30T03:36:03.086Z,99.99
2019-04-30T03:37:03.067Z,99.99
2019-04-30T03:38:03.131Z,99.99
2019-04-30T03:39:03.191Z,99.99
2019-04-30T03:40:03.267Z,99.99
2019-04-30T03:41:03.318Z,99.99
2019-04-30T03:42:03.390Z,99.99
2019-04-30T03:43:03.446Z,99.99
2019-04-30T03:44:17.309Z,99.99
2019-04-30T03:45:03.575Z,99.99
2019-04-30T03:46:03.636Z,99.99
2019-04-30T03:47:03.689Z,99.99
2019-04-30T03:48:03.756Z,99.99
2019-04-30T03:49:03.815Z,99.99
2019-04-30T03:50:03.887Z,99.99
2019-04-30T03:51:03.951Z,99.99
2019-04-30T03:52:04.004Z,99.99
2019-04-30T03:53:04.071Z,99.99
2019-04-30T03:54:04.131Z,99.99
2019-04-30T03:55:04.221Z,99.99
2019-04-30T03:56:04.255Z,99.99
2019-04-30T03:57:04.324Z,99.99
2019-04-30T03:58:04.379Z,99.99
2019-04-30T03:59:04.442Z,99.99
2019-04-30T04:00:04.512Z,99.99
2019-04-30T04:01:04.579Z,99.99
2019-04-30T04:02:04.639Z,99.99
2019-04-30T04:03:04.691Z,99.99
2019-04-30T04:04:04.755Z,99.99
2019-04-30T04:05:04.825Z,99.99
2019-04-30T04:06:04.887Z,99.99
2019-04-30T04:07:04.944Z,99.99
2019-04-30T04:08:05.008Z,99.99
2019-04-30T04:09:05.069Z,99.99
2019-04-30T04:10:05.152Z,99.99
2019-04-30T04:11:05.192Z,99.99
2019-04-30T04:12:05.256Z,99.99
2019-04-30T04:13:05.319Z,99.99
2019-04-30T04:14:05.381Z,99.99
2019-04-30T04:15:05.458Z,99.99
2019-04-30T04:16:05.514Z,99.99
2019-04-30T04:17:05.571Z,99.99
2019-04-30T04:18:05.633Z,99.99
2019-04-30T04:19:05.693Z,99.99
2019-04-30T04:20:05.764Z,99.99
2019-04-30T04:21:12.114Z,99.99
2019-04-30T04:22:05.880Z,99.99
2019-04-30T04:23:05.951Z,99.99
2019-04-30T04:24:06.007Z,99.99
2019-04-30T04:25:06.081Z,99.99
2019-04-30T04:26:06.134Z,99.99
2019-04-30T04:27:06.193Z,99.99
2019-04-30T04:28:06.255Z,99.99
2019-04-30T04:29:06.318Z,99.99
2019-04-30T04:30:06.389Z,99.99
2019-04-30T04:31:06.450Z,99.99
2019-04-30T04:32:06.506Z,99.99
2019-04-30T04:33:06.578Z,99.99
2019-04-30T04:34:09.168Z,99.99
2019-04-30T04:35:12.195Z,99.99
2019-04-30T04:36:09.054Z,99.99
2019-04-30T04:37:09.887Z,99.99
2019-04-30T04:38:06.882Z,99.99
2019-04-30T04:39:09.691Z,99.99
2019-04-30T04:40:09.230Z,99.99
2019-04-30T04:41:10.106Z,99.99
2019-04-30T04:42:09.954Z,99.99
2019-04-30T04:43:07.194Z,99.99
2019-04-30T04:44:10.007Z,99.99
2019-04-30T04:45:09.892Z,99.99
2019-04-30T04:46:09.280Z,99.99
2019-04-30T04:47:09.902Z,99.99
2019-04-30T04:48:09.584Z,99.99
2019-04-30T04:49:09.031Z,99.99
2019-04-30T04:50:10.032Z,99.99
2019-04-30T04:51:19.742Z,99.99
2019-04-30T04:52:10.177Z,99.99
2019-04-30T04:53:11.121Z,99.99
2019-04-30T04:54:10.372Z,99.99
2019-04-30T04:55:10.087Z,99.99
2019-04-30T04:56:10.052Z,99.99
2019-04-30T04:57:17.001Z,99.99
2019-04-30T04:58:09.667Z,99.99
2019-04-30T04:59:10.259Z,99.99
2019-04-30T05:00:10.428Z,99.99
2019-04-30T05:01:09.065Z,99.99
2019-04-30T05:02:09.900Z,99.99
2019-04-30T05:03:09.493Z,99.99
2019-04-30T05:04:11.457Z,99.99
2019-04-30T05:05:09.643Z,99.99
2019-04-30T05:06:11.400Z,99.99
2019-04-30T05:07:09.092Z,99.99
2019-04-30T05:08:08.754Z,99.99
2019-04-30T05:09:09.710Z,99.99
2019-04-30T05:10:09.306Z,99.99
2019-04-30T05:11:09.593Z,99.99
2019-04-30T05:12:09.015Z,99.99
2019-04-30T05:13:09.237Z,99.99
2019-04-30T05:14:10.911Z,99.99
2019-04-30T05:15:09.671Z,99.99
2019-04-30T05:16:09.358Z,99.99
2019-04-30T05:17:09.877Z,99.99
2019-04-30T05:18:09.381Z,99.99
2019-04-30T05:19:09.443Z,99.99
2019-04-30T05:20:10.132Z,99.99
2019-04-30T05:21:09.575Z,99.99
2019-04-30T05:22:09.639Z,99.99
2019-04-30T05:23:09.690Z,99.99
2019-04-30T05:24:09.760Z,99.99
2019-04-30T05:25:09.822Z,99.99
2019-04-30T05:26:11.146Z,99.99
2019-04-30T05:27:09.953Z,99.99
2019-04-30T05:28:10.008Z,99.99
2019-04-30T05:29:10.068Z,99.99
2019-04-30T05:30:12.160Z,99.99
2019-04-30T05:31:10.207Z,99.99
2019-04-30T05:32:10.256Z,99.99
2019-04-30T05:33:10.320Z,99.99
2019-04-30T05:34:10.396Z,99.99
2019-04-30T05:35:10.446Z,99.99
2019-04-30T05:36:10.516Z,99.99
2019-04-30T05:37:10.584Z,99.99
2019-04-30T05:38:10.632Z,99.99
2019-04-30T05:39:10.692Z,99.99
2019-04-30T05:40:10.756Z,99.99
2019-04-30T05:41:10.828Z,99.99
2019-04-30T05:42:10.904Z,99.99
2019-04-30T05:43:11.313Z,99.99
2019-04-30T05:44:11.009Z,99.99
2019-04-30T05:45:11.069Z,99.99
2019-04-30T05:46:11.176Z,99.99
2019-04-30T05:47:11.197Z,99.99
2019-04-30T05:48:11.256Z,99.99
2019-04-30T05:49:11.321Z,99.99
2019-04-30T05:50:11.389Z,99.99
2019-04-30T05:51:11.452Z,99.99
2019-04-30T05:52:11.631Z,99.99
2019-04-30T05:53:11.577Z,99.99
2019-04-30T05:54:11.646Z,99.99
2019-04-30T05:55:11.696Z,99.99
2019-04-30T05:56:11.769Z,99.99
2019-04-30T05:57:11.828Z,99.99
2019-04-30T05:58:11.886Z,99.99
2019-04-30T05:59:11.955Z,99.99
2019-04-30T06:00:12.009Z,99.99
2019-04-30T06:01:12.101Z,99.99
2019-04-30T06:02:12.140Z,99.99
2019-04-30T06:03:12.197Z,99.99
2019-04-30T06:04:12.271Z,99.99
2019-04-30T06:05:12.325Z,99.99
2019-04-30T06:06:12.400Z,99.99
2019-04-30T06:07:12.457Z,99.99
2019-04-30T06:08:12.513Z,99.99
2019-04-30T06:09:16.080Z,99.99
2019-04-30T06:10:12.639Z,99.99
2019-04-30T06:11:12.709Z,99.99
2019-04-30T06:12:12.770Z,99.99
2019-04-30T06:13:12.826Z,99.99
2019-04-30T06:14:12.890Z,99.99
2019-04-30T06:15:12.955Z,99.99
2019-04-30T06:16:13.022Z,99.99
2019-04-30T06:17:13.083Z,99.99
2019-04-30T06:18:13.996Z,99.99
2019-04-30T06:19:13.205Z,99.99
2019-04-30T06:20:18.259Z,99.99
2019-04-30T06:21:13.413Z,99.99
2019-04-30T06:22:13.391Z,99.99
2019-04-30T06:23:13.456Z,99.99
2019-04-30T06:24:13.518Z,99.99
2019-04-30T06:25:13.582Z,99.99
2019-04-30T06:26:13.658Z,99.99
2019-04-30T06:27:13.712Z,99.99
2019-04-30T06:28:13.773Z,99.99
2019-04-30T06:29:13.830Z,99.99
2019-04-30T06:30:13.894Z,99.99
2019-04-30T06:31:13.961Z,99.99
2019-04-30T06:32:14.027Z,99.99
2019-04-30T06:33:14.083Z,99.99
2019-04-30T06:34:14.142Z,99.99
2019-04-30T06:35:14.206Z,99.99
2019-04-30T06:36:14.278Z,99.99
2019-04-30T06:37:14.511Z,99.99
2019-04-30T06:38:14.394Z,99.99
2019-04-30T06:39:14.461Z,99.14
2019-04-30T06:40:14.518Z,98.94
2019-04-30T06:41:14.588Z,99.04
2019-04-30T06:42:14.654Z,98.33
2019-04-30T06:43:14.719Z,96.56
2019-04-30T06:44:14.785Z,96.17
2019-04-30T06:45:14.839Z,96.32
2019-04-30T06:46:14.903Z,96.22
2019-04-30T06:47:14.971Z,95.22
2019-04-30T06:48:15.039Z,94.22
2019-04-30T06:49:15.094Z,92.88
2019-04-30T06:50:15.154Z,90.72
2019-04-30T06:51:15.219Z,89.86
2019-04-30T06:52:20.545Z,87.66
2019-04-30T06:53:15.350Z,87.85
2019-04-30T06:54:15.416Z,89.29
2019-04-30T06:55:15.479Z,88.43
2019-04-30T06:56:15.548Z,88.00
2019-04-30T06:57:15.616Z,88.76
2019-04-30T06:58:15.691Z,88.81
2019-04-30T06:59:15.735Z,89.96
2019-04-30T07:00:15.804Z,90.30
2019-04-30T07:01:15.868Z,88.67
2019-04-30T07:02:15.940Z,86.84
2019-04-30T07:03:16.003Z,83.30
2019-04-30T07:04:16.064Z,81.33
2019-04-30T07:05:16.129Z,79.83
2019-04-30T07:06:27.550Z,78.59
2019-04-30T07:07:19.325Z,78.53
2019-04-30T07:08:16.327Z,77.48
2019-04-30T07:09:16.398Z,76.94
2019-04-30T07:10:17.227Z,74.68
2019-04-30T07:11:16.529Z,73.52
2019-04-30T07:12:25.409Z,72.69
2019-04-30T07:13:18.663Z,71.16
2019-04-30T07:14:16.740Z,69.91
2019-04-30T07:15:16.804Z,70.43
2019-04-30T07:16:18.999Z,69.37
2019-04-30T07:17:16.949Z,69.56
2019-04-30T07:18:18.854Z,68.51
2019-04-30T07:19:30.009Z,68.18
2019-04-30T07:20:19.119Z,68.41
2019-04-30T07:21:19.547Z,67.45
2019-04-30T07:22:20.660Z,67.07
2019-04-30T07:23:18.849Z,67.10
2019-04-30T07:24:20.773Z,66.84
2019-04-30T07:25:19.374Z,64.82
2019-04-30T07:26:22.738Z,64.86
2019-04-30T07:27:21.776Z,64.89
2019-04-30T07:28:19.057Z,63.57
2019-04-30T07:29:19.624Z,62.00
2019-04-30T07:30:19.216Z,62.93
2019-04-30T07:31:19.258Z,63.51
2019-04-30T07:32:19.764Z,63.89
2019-04-30T07:33:20.681Z,62.41
2019-04-30T07:34:19.666Z,63.18
2019-04-30T07:35:19.598Z,63.35
2019-04-30T07:36:19.523Z,62.99
2019-04-30T07:37:24.273Z,62.00
2019-04-30T07:38:19.329Z,61.74
2019-04-30T07:39:19.260Z,61.16
2019-04-30T07:40:19.100Z,61.07
2019-04-30T07:41:19.032Z,61.10
2019-04-30T07:42:19.190Z,61.10
2019-04-30T07:43:19.071Z,60.46
2019-04-30T07:44:31.095Z,60.91
2019-04-30T07:45:19.599Z,61.10
2019-04-30T07:46:20.026Z,61.71
2019-04-30T07:47:19.688Z,61.32
2019-04-30T07:48:25.874Z,61.90
2019-04-30T07:49:20.582Z,61.71
2019-04-30T07:50:21.549Z,62.67
2019-04-30T07:51:20.931Z,61.97
2019-04-30T07:52:21.426Z,61.29
2019-04-30T07:53:19.502Z,60.72
2019-04-30T07:54:19.571Z,61.71
2019-04-30T07:55:19.855Z,63.89
2019-04-30T07:56:27.986Z,64.85
2019-04-30T07:57:19.782Z,65.91
2019-04-30T07:58:20.423Z,65.56
2019-04-30T07:59:20.250Z,65.50
2019-04-30T08:00:19.987Z,63.83
2019-04-30T08:01:20.056Z,62.96
2019-04-30T08:02:20.772Z,63.60
2019-04-30T08:03:20.819Z,65.72
2019-04-30T08:04:20.262Z,64.85
2019-04-30T08:05:20.332Z,65.49
2019-04-30T08:06:22.474Z,64.15
2019-04-30T08:07:20.717Z,65.20
2019-04-30T08:08:25.110Z,66.52
2019-04-30T08:09:22.202Z,66.42
2019-04-30T08:10:20.688Z,67.25
2019-04-30T08:11:26.096Z,68.85
2019-04-30T08:12:26.067Z,67.07
2019-04-30T08:13:22.141Z,66.04
2019-04-30T08:14:21.230Z,64.47
2019-04-30T08:15:21.019Z,64.05
2019-04-30T08:16:21.087Z,63.34
2019-04-30T08:17:21.176Z,60.32
2019-04-30T08:18:21.225Z,59.71
2019-04-30T08:19:21.295Z,57.53
2019-04-30T08:20:21.364Z,58.34
2019-04-30T08:21:21.438Z,59.75
2019-04-30T08:22:21.507Z,61.16
2019-04-30T08:23:34.019Z,62.23
2019-04-30T08:24:21.640Z,61.04
2019-04-30T08:25:22.076Z,61.45
2019-04-30T08:26:21.780Z,59.72
2019-04-30T08:27:21.855Z,58.69
2019-04-30T08:28:21.925Z,57.17
2019-04-30T08:29:21.987Z,56.30
2019-04-30T08:30:26.676Z,56.49
2019-04-30T08:31:22.129Z,55.15
2019-04-30T08:32:22.208Z,55.41
2019-04-30T08:33:22.274Z,55.22
2019-04-30T08:34:22.336Z,56.30
2019-04-30T08:35:22.409Z,55.18
2019-04-30T08:36:22.480Z,54.24
2019-04-30T08:37:22.559Z,52.64
2019-04-30T08:38:22.628Z,54.21
2019-04-30T08:39:22.692Z,54.40
2019-04-30T08:40:22.765Z,55.13
2019-04-30T08:41:22.837Z,54.33
2019-04-30T08:42:31.678Z,54.19
2019-04-30T08:43:22.998Z,52.65
2019-04-30T08:44:23.052Z,54.35
2019-04-30T08:45:23.126Z,52.63
2019-04-30T08:46:23.194Z,51.35
2019-04-30T08:47:23.264Z,49.85
2019-04-30T08:48:23.381Z,50.69
2019-04-30T08:49:23.650Z,52.64
2019-04-30T08:50:23.482Z,54.09
2019-04-30T08:51:23.615Z,53.87
2019-04-30T08:52:23.682Z,54.44
2019-04-30T08:53:29.206Z,55.27
2019-04-30T08:54:23.801Z,54.79
2019-04-30T08:55:23.837Z,54.21
2019-04-30T08:56:23.911Z,53.03
2019-04-30T08:57:23.982Z,54.38
2019-04-30T08:58:24.057Z,53.77
2019-04-30T08:59:24.129Z,53.67
2019-04-30T09:00:24.193Z,53.96
2019-04-30T09:01:24.266Z,54.80
2019-04-30T09:02:24.341Z,55.31
2019-04-30T09:03:24.415Z,53.77
2019-04-30T09:04:24.486Z,54.54
2019-04-30T09:05:24.549Z,54.83
2019-04-30T09:06:24.864Z,54.25
2019-04-30T09:07:24.693Z,55.05
2019-04-30T09:08:24.773Z,55.34
2019-04-30T09:09:24.842Z,54.98
2019-04-30T09:10:24.906Z,54.47
2019-04-30T09:11:32.162Z,54.69
2019-04-30T09:12:25.046Z,54.35
2019-04-30T09:13:25.511Z,55.24
2019-04-30T09:14:25.190Z,55.18
2019-04-30T09:15:25.271Z,53.58
2019-04-30T09:16:25.367Z,55.15
2019-04-30T09:17:25.404Z,54.06
2019-04-30T09:18:25.473Z,54.42
2019-04-30T09:19:25.729Z,55.09
2019-04-30T09:20:25.610Z,54.16
2019-04-30T09:21:25.683Z,54.57
2019-04-30T09:22:25.755Z,54.62
2019-04-30T09:23:25.823Z,54.29
2019-04-30T09:24:25.903Z,51.29
2019-04-30T09:25:25.972Z,51.44
2019-04-30T09:26:26.035Z,51.56
2019-04-30T09:27:26.103Z,49.15
2019-04-30T09:28:26.180Z,50.60
2019-04-30T09:29:26.255Z,49.32
2019-04-30T09:30:26.335Z,51.92
2019-04-30T09:31:26.386Z,53.25
2019-04-30T09:32:26.464Z,54.05
2019-04-30T09:33:26.527Z,54.75
2019-04-30T09:34:28.901Z,54.27
2019-04-30T09:35:29.426Z,52.72
2019-04-30T09:36:26.740Z,51.95
2019-04-30T09:37:26.811Z,52.23
2019-04-30T09:38:28.897Z,52.89
2019-04-30T09:39:26.960Z,54.24
2019-04-30T09:40:30.254Z,54.62
2019-04-30T09:41:28.797Z,54.40
2019-04-30T09:42:29.481Z,54.28
2019-04-30T09:43:28.634Z,54.83
2019-04-30T09:44:30.558Z,55.19
2019-04-30T09:45:28.593Z,55.02
2019-04-30T09:46:29.793Z,56.62
2019-04-30T09:47:29.431Z,55.59
2019-04-30T09:48:30.304Z,52.11
2019-04-30T09:49:29.463Z,52.19
2019-04-30T09:50:28.969Z,53.69
2019-04-30T09:51:29.916Z,52.75
2019-04-30T09:52:30.134Z,51.49
2019-04-30T09:53:29.751Z,50.43
2019-04-30T09:54:28.892Z,50.71
2019-04-30T09:55:29.063Z,51.27
2019-04-30T09:56:29.466Z,51.75
2019-04-30T09:57:29.013Z,52.36
2019-04-30T09:58:29.970Z,51.46
2019-04-30T09:59:29.155Z,52.75
2019-04-30T10:00:29.463Z,52.55
2019-04-30T10:01:28.494Z,51.20
2019-04-30T10:02:29.087Z,53.74
2019-04-30T10:03:30.851Z,52.84
2019-04-30T10:04:30.275Z,53.30
2019-04-30T10:05:29.240Z,52.28
2019-04-30T10:06:38.991Z,52.55
2019-04-30T10:07:29.349Z,52.83
2019-04-30T10:08:30.629Z,53.58
2019-04-30T10:09:29.436Z,53.27
2019-04-30T10:10:29.125Z,53.70
2019-04-30T10:11:29.189Z,55.56
2019-04-30T10:12:29.513Z,54.11
2019-04-30T10:13:29.329Z,54.53
2019-04-30T10:14:29.484Z,53.53
2019-04-30T10:15:29.466Z,52.67
2019-04-30T10:16:29.680Z,52.67
2019-04-30T10:17:29.605Z,52.61
2019-04-30T10:18:29.678Z,53.99
2019-04-30T10:19:29.751Z,54.11
2019-04-30T10:20:29.818Z,53.97
2019-04-30T10:21:29.882Z,52.79
2019-04-30T10:22:29.950Z,52.98
2019-04-30T10:23:30.418Z,52.23
2019-04-30T10:24:30.102Z,51.56
2019-04-30T10:25:30.164Z,51.97
2019-04-30T10:26:30.226Z,50.40
2019-04-30T10:27:30.294Z,52.55
2019-04-30T10:28:30.362Z,53.52
2019-04-30T10:29:30.452Z,52.45
2019-04-30T10:30:30.511Z,52.04
2019-04-30T10:31:30.569Z,51.95
2019-04-30T10:32:30.638Z,52.69
2019-04-30T10:33:30.709Z,51.70
2019-04-30T10:34:30.787Z,52.30
2019-04-30T10:35:30.855Z,54.39
2019-04-30T10:36:30.920Z,54.61
2019-04-30T10:37:30.987Z,55.41
2019-04-30T10:38:31.055Z,56.30
2019-04-30T10:39:31.150Z,54.16
2019-04-30T10:40:31.216Z,53.17
2019-04-30T10:41:31.258Z,54.10
2019-04-30T10:42:34.451Z,54.42
2019-04-30T10:43:32.053Z,56.05
2019-04-30T10:44:31.470Z,55.96
2019-04-30T10:45:31.539Z,56.54
2019-04-30T10:46:31.606Z,56.27
2019-04-30T10:47:32.735Z,53.96
2019-04-30T10:48:31.747Z,54.40
2019-04-30T10:49:31.820Z,54.21
2019-04-30T10:50:31.883Z,52.89
2019-04-30T10:51:31.943Z,53.39
2019-04-30T10:52:32.010Z,51.29
2019-04-30T10:53:32.080Z,52.53
2019-04-30T10:54:32.164Z,52.09
2019-04-30T10:55:32.221Z,52.86
2019-04-30T10:56:32.286Z,54.11
2019-04-30T10:57:32.352Z,54.91
2019-04-30T10:58:32.424Z,53.66
2019-04-30T10:59:32.499Z,53.17
2019-04-30T11:00:32.564Z,54.02
2019-04-30T11:01:32.627Z,55.01
2019-04-30T11:02:32.696Z,54.43
2019-04-30T11:03:32.765Z,54.50
2019-04-30T11:04:32.840Z,54.21
2019-04-30T11:05:32.908Z,54.62
2019-04-30T11:06:32.967Z,52.69
2019-04-30T11:07:33.036Z,51.89
2019-04-30T11:08:33.104Z,52.40
2019-04-30T11:09:33.189Z,52.69
2019-04-30T11:10:33.242Z,52.57
2019-04-30T11:11:33.308Z,52.35
2019-04-30T11:12:33.381Z,51.39
2019-04-30T11:13:33.447Z,52.25
2019-04-30T11:14:33.521Z,53.41
2019-04-30T11:15:33.589Z,54.28
2019-04-30T11:16:33.653Z,55.44
2019-04-30T11:17:33.821Z,54.28
2019-04-30T11:18:34.005Z,54.86
2019-04-30T11:19:33.962Z,54.22
2019-04-30T11:20:34.181Z,56.25
2019-04-30T11:21:34.193Z,55.09
2019-04-30T11:22:34.247Z,56.95
2019-04-30T11:23:34.264Z,58.20
2019-04-30T11:24:38.119Z,57.46
2019-04-30T11:25:34.980Z,53.41
2019-04-30T11:26:34.582Z,52.16
2019-04-30T11:27:34.929Z,52.59
2019-04-30T11:28:34.620Z,53.27
2019-04-30T11:29:34.764Z,53.17
2019-04-30T11:30:34.811Z,53.67
2019-04-30T11:31:34.861Z,53.77
2019-04-30T11:32:35.030Z,52.33
2019-04-30T11:33:35.056Z,53.31
2019-04-30T11:34:34.886Z,52.64
2019-04-30T11:35:34.949Z,52.37
2019-04-30T11:36:35.018Z,50.32
2019-04-30T11:37:35.081Z,50.52
2019-04-30T11:38:35.150Z,52.64
2019-04-30T11:39:35.333Z,52.69
2019-04-30T11:40:37.935Z,51.62
2019-04-30T11:41:35.354Z,52.49
2019-04-30T11:42:35.422Z,52.71
2019-04-30T11:43:35.491Z,54.16
2019-04-30T11:44:35.567Z,54.16
2019-04-30T11:45:35.634Z,53.29
2019-04-30T11:46:35.694Z,53.58
2019-04-30T11:47:35.762Z,54.83
2019-04-30T11:48:35.830Z,54.18
2019-04-30T11:49:35.906Z,55.85
2019-04-30T11:50:35.979Z,53.53
2019-04-30T11:51:36.030Z,50.93
2019-04-30T11:52:36.103Z,50.71
2019-04-30T11:53:36.170Z,50.71
2019-04-30T11:54:48.244Z,53.73
2019-04-30T11:55:36.314Z,54.11
2019-04-30T11:56:38.371Z,53.92
2019-04-30T11:57:36.438Z,52.47
2019-04-30T11:58:36.507Z,51.32
2019-04-30T11:59:36.584Z,51.29
2019-04-30T12:00:36.651Z,53.63
2019-04-30T12:01:36.719Z,55.30
2019-04-30T12:02:36.779Z,54.27
2019-04-30T12:03:36.847Z,52.43
2019-04-30T12:04:36.927Z,52.75
2019-04-30T12:05:38.842Z,51.27
2019-04-30T12:06:37.053Z,52.53
2019-04-30T12:07:37.119Z,53.69
2019-04-30T12:08:39.141Z,52.53
2019-04-30T12:09:38.604Z,52.75
2019-04-30T12:10:39.110Z,52.65
2019-04-30T12:11:37.393Z,51.78
2019-04-30T12:12:38.778Z,49.34
2019-04-30T12:13:37.527Z,48.93
2019-04-30T12:14:39.457Z,51.32
2019-04-30T12:15:37.675Z,52.57
2019-04-30T12:16:39.473Z,52.67
2019-04-30T12:17:37.799Z,50.42
2019-04-30T12:18:37.871Z,50.30
2019-04-30T12:19:38.760Z,51.14
2019-04-30T12:20:38.012Z,52.11
2019-04-30T12:21:38.079Z,52.59
2019-04-30T12:22:39.683Z,53.27
2019-04-30T12:23:38.208Z,52.30
2019-04-30T12:24:38.848Z,52.71
2019-04-30T12:25:38.752Z,51.82
2019-04-30T12:26:39.007Z,51.46
2019-04-30T12:27:38.717Z,51.68
2019-04-30T12:28:38.547Z,52.35
2019-04-30T12:29:39.734Z,54.50
2019-04-30T12:30:39.196Z,52.09
2019-04-30T12:31:38.763Z,51.22
2019-04-30T12:32:39.352Z,51.51
2019-04-30T12:33:38.891Z,50.54
2019-04-30T12:34:38.957Z,50.16
2019-04-30T12:35:39.028Z,51.12
2019-04-30T12:36:39.097Z,53.53
2019-04-30T12:37:39.196Z,52.47
2019-04-30T12:38:39.224Z,53.53
2019-04-30T12:39:39.504Z,51.68
2019-04-30T12:40:39.374Z,52.45
2019-04-30T12:41:40.701Z,51.68
2019-04-30T12:42:39.499Z,52.76
2019-04-30T12:43:39.565Z,53.63
2019-04-30T12:44:40.087Z,51.61
2019-04-30T12:45:39.708Z,51.41
2019-04-30T12:46:39.777Z,49.39
2019-04-30T12:47:39.837Z,47.94
2019-04-30T12:48:39.905Z,47.94
2019-04-30T12:49:39.973Z,49.94
2019-04-30T12:50:40.045Z,50.32
2019-04-30T12:51:46.024Z,50.49
2019-04-30T12:52:40.181Z,51.24
2019-04-30T12:53:40.245Z,50.98